Base Line, California
Current Conditions -  °F | °C
As of 7:53 PM on Wednesday 28 Jan 2015 (Local Time) from KRAL Reporting Station
Clear Clear  
Wind Chill: 66°   Ceiling: Unl
Heat Index: 66°   Visibility: 10mi
Dew Point: 44°   Wind: 5mph
Humidity: 45%   Direction: 60°ENE
Pressure: 30.11"   Gusts: NA
Location:  34.1058°N, 117.294°W
Report Text: KRAL 290353Z 06004KT 10SM CLR 19/07 A3011 RMK AO2 SLP184 T01890067
Loading
Personal Weather Stations






























Interactive Weather Map New forecast layout! Learn more

10-Day Weather Forecast

Advertisements
Track Severe Weather on mobile